sensor_id;sensor_type;location;lat;lon;timestamp;temperature;humidity
35960;DHT22;22043;50.970;7.192;2023-02-07T00:00:15;2.90;99.90
35960;DHT22;22043;50.970;7.192;2023-02-07T00:02:43;3.00;99.90
35960;DHT22;22043;50.970;7.192;2023-02-07T00:05:08;3.00;99.90
35960;DHT22;22043;50.970;7.192;2023-02-07T00:07:35;2.90;99.90
35960;DHT22;22043;50.970;7.192;2023-02-07T00:10:03;2.90;99.90
35960;DHT22;22043;50.970;7.192;2023-02-07T00:12:29;2.90;99.90
35960;DHT22;22043;50.970;7.192;2023-02-07T00:14:56;2.90;99.90
35960;DHT22;22043;50.970;7.192;2023-02-07T00:20:04;2.90;99.90
35960;DHT22;22043;50.970;7.192;2023-02-07T00:22:31;2.90;99.90
35960;DHT22;22043;50.970;7.192;2023-02-07T00:24:57;2.90;99.90
35960;DHT22;22043;50.970;7.192;2023-02-07T00:27:23;2.80;99.90
35960;DHT22;22043;50.970;7.192;2023-02-07T00:29:50;2.90;99.90
35960;DHT22;22043;50.970;7.192;2023-02-07T00:32:16;2.80;99.90
35960;DHT22;22043;50.970;7.192;2023-02-07T00:34:44;2.80;99.90
35960;DHT22;22043;50.970;7.192;2023-02-07T00:37:10;2.90;99.90
35960;DHT22;22043;50.970;7.192;2023-02-07T00:39:36;2.90;99.90
35960;DHT22;22043;50.970;7.192;2023-02-07T00:42:03;2.90;99.90
35960;DHT22;22043;50.970;7.192;2023-02-07T00:44:29;2.80;99.90
35960;DHT22;22043;50.970;7.192;2023-02-07T00:46:57;2.80;99.90
35960;DHT22;22043;50.970;7.192;2023-02-07T00:49:23;2.80;99.90
35960;DHT22;22043;50.970;7.192;2023-02-07T00:51:49;2.90;99.90
35960;DHT22;22043;50.970;7.192;2023-02-07T00:54:15;2.80;99.90
35960;DHT22;22043;50.970;7.192;2023-02-07T00:56:41;2.80;99.90
35960;DHT22;22043;50.970;7.192;2023-02-07T00:59:07;2.70;99.90
35960;DHT22;22043;50.970;7.192;2023-02-07T01:01:34;2.70;99.90
35960;DHT22;22043;50.970;7.192;2023-02-07T01:04:00;2.70;99.90
35960;DHT22;22043;50.970;7.192;2023-02-07T01:06:26;2.70;99.90
35960;DHT22;22043;50.970;7.192;2023-02-07T01:09:00;2.70;99.90
35960;DHT22;22043;50.970;7.192;2023-02-07T01:11:46;2.70;99.90
35960;DHT22;22043;50.970;7.192;2023-02-07T01:14:12;2.70;99.90
35960;DHT22;22043;50.970;7.192;2023-02-07T01:16:38;2.60;99.90
35960;DHT22;22043;50.970;7.192;2023-02-07T01:19:07;2.70;99.90
35960;DHT22;22043;50.970;7.192;2023-02-07T01:21:33;2.60;99.90
35960;DHT22;22043;50.970;7.192;2023-02-07T01:24:00;2.60;99.90
35960;DHT22;22043;50.970;7.192;2023-02-07T02:06:20;2.40;99.90
35960;DHT22;22043;50.970;7.192;2023-02-07T02:08:46;2.30;99.90
35960;DHT22;22043;50.970;7.192;2023-02-07T02:17:23;2.40;99.90
35960;DHT22;22043;50.970;7.192;2023-02-07T02:20:07;2.30;99.90
35960;DHT22;22043;50.970;7.192;2023-02-07T02:22:58;2.30;99.90
35960;DHT22;22043;50.970;7.192;2023-02-07T02:33:59;2.20;99.90
35960;DHT22;22043;50.970;7.192;2023-02-07T02:39:22;2.10;99.90
35960;DHT22;22043;50.970;7.192;2023-02-07T02:44:44;2.10;99.90
35960;DHT22;22043;50.970;7.192;2023-02-07T02:47:11;2.10;99.90
35960;DHT22;22043;50.970;7.192;2023-02-07T02:49:38;2.20;99.90
35960;DHT22;22043;50.970;7.192;2023-02-07T02:52:06;2.10;99.90
35960;DHT22;22043;50.970;7.192;2023-02-07T02:54:36;2.20;99.90
35960;DHT22;22043;50.970;7.192;2023-02-07T02:57:50;2.10;99.90
35960;DHT22;22043;50.970;7.192;2023-02-07T03:00:53;2.10;99.90
35960;DHT22;22043;50.970;7.192;2023-02-07T03:03:59;2.10;99.90
35960;DHT22;22043;50.970;7.192;2023-02-07T03:06:36;2.10;99.90
35960;DHT22;22043;50.970;7.192;2023-02-07T03:12:12;2.10;99.90
35960;DHT22;22043;50.970;7.192;2023-02-07T03:14:53;2.00;99.90
35960;DHT22;22043;50.970;7.192;2023-02-07T03:17:34;2.00;99.90
35960;DHT22;22043;50.970;7.192;2023-02-07T03:20:13;2.00;99.90
35960;DHT22;22043;50.970;7.192;2023-02-07T03:22:43;2.00;99.90
35960;DHT22;22043;50.970;7.192;2023-02-07T03:25:10;2.00;99.90
35960;DHT22;22043;50.970;7.192;2023-02-07T03:27:39;1.90;99.90
35960;DHT22;22043;50.970;7.192;2023-02-07T03:30:09;1.90;99.90
35960;DHT22;22043;50.970;7.192;2023-02-07T03:32:38;1.90;99.90
35960;DHT22;22043;50.970;7.192;2023-02-07T03:35:23;2.00;99.90
35960;DHT22;22043;50.970;7.192;2023-02-07T03:37:55;2.00;99.90
35960;DHT22;22043;50.970;7.192;2023-02-07T03:40:23;2.00;99.90
35960;DHT22;22043;50.970;7.192;2023-02-07T03:43:14;1.90;99.90
35960;DHT22;22043;50.970;7.192;2023-02-07T03:45:41;1.90;99.90
35960;DHT22;22043;50.970;7.192;2023-02-07T03:48:07;1.90;99.90
35960;DHT22;22043;50.970;7.192;2023-02-07T03:50:33;1.80;99.90
35960;DHT22;22043;50.970;7.192;2023-02-07T03:52:58;1.80;99.90
35960;DHT22;22043;50.970;7.192;2023-02-07T03:55:24;1.80;99.90
35960;DHT22;22043;50.970;7.192;2023-02-07T03:57:50;1.90;99.90
35960;DHT22;22043;50.970;7.192;2023-02-07T04:00:15;1.90;99.90
35960;DHT22;22043;50.970;7.192;2023-02-07T04:02:42;1.90;99.90
35960;DHT22;22043;50.970;7.192;2023-02-07T04:05:07;1.90;99.90
35960;DHT22;22043;50.970;7.192;2023-02-07T04:07:33;2.00;99.90
35960;DHT22;22043;50.970;7.192;2023-02-07T04:09:59;2.00;99.90
35960;DHT22;22043;50.970;7.192;2023-02-07T04:12:24;1.90;99.90
35960;DHT22;22043;50.970;7.192;2023-02-07T04:14:57;1.90;99.90
35960;DHT22;22043;50.970;7.192;2023-02-07T04:17:23;1.80;99.90
35960;DHT22;22043;50.970;7.192;2023-02-07T04:19:49;1.80;99.90
35960;DHT22;22043;50.970;7.192;2023-02-07T04:22:14;1.80;99.90
35960;DHT22;22043;50.970;7.192;2023-02-07T04:24:40;1.70;99.90
35960;DHT22;22043;50.970;7.192;2023-02-07T04:27:05;1.80;99.90
35960;DHT22;22043;50.970;7.192;2023-02-07T04:29:31;1.80;99.90
35960;DHT22;22043;50.970;7.192;2023-02-07T04:31:57;1.80;99.90
35960;DHT22;22043;50.970;7.192;2023-02-07T04:34:23;1.90;99.90
35960;DHT22;22043;50.970;7.192;2023-02-07T04:36:49;1.80;99.90
35960;DHT22;22043;50.970;7.192;2023-02-07T04:39:14;1.90;99.90
35960;DHT22;22043;50.970;7.192;2023-02-07T04:41:40;1.90;99.90
35960;DHT22;22043;50.970;7.192;2023-02-07T04:44:06;1.80;99.90
35960;DHT22;22043;50.970;7.192;2023-02-07T04:46:31;1.80;99.90
35960;DHT22;22043;50.970;7.192;2023-02-07T04:48:57;1.80;99.90
35960;DHT22;22043;50.970;7.192;2023-02-07T04:51:23;1.70;99.90
35960;DHT22;22043;50.970;7.192;2023-02-07T04:53:48;1.70;99.90
35960;DHT22;22043;50.970;7.192;2023-02-07T04:56:14;1.70;99.90
35960;DHT22;22043;50.970;7.192;2023-02-07T04:58:39;1.70;99.90
35960;DHT22;22043;50.970;7.192;2023-02-07T05:01:05;1.60;99.90
35960;DHT22;22043;50.970;7.192;2023-02-07T05:03:31;1.60;99.90
35960;DHT22;22043;50.970;7.192;2023-02-07T05:05:56;1.70;99.90
35960;DHT22;22043;50.970;7.192;2023-02-07T05:08:22;1.60;99.90
35960;DHT22;22043;50.970;7.192;2023-02-07T05:10:55;1.60;99.90
35960;DHT22;22043;50.970;7.192;2023-02-07T05:13:21;1.60;99.90
35960;DHT22;22043;50.970;7.192;2023-02-07T05:15:47;1.60;99.90
35960;DHT22;22043;50.970;7.192;2023-02-07T05:18:13;1.60;99.90
35960;DHT22;22043;50.970;7.192;2023-02-07T05:20:39;1.60;99.90
35960;DHT22;22043;50.970;7.192;2023-02-07T05:23:04;1.70;99.90
35960;DHT22;22043;50.970;7.192;2023-02-07T05:25:30;1.60;99.90
35960;DHT22;22043;50.970;7.192;2023-02-07T05:27:56;1.70;99.90
35960;DHT22;22043;50.970;7.192;2023-02-07T05:30:21;1.70;99.90
35960;DHT22;22043;50.970;7.192;2023-02-07T05:32:47;1.70;99.90
35960;DHT22;22043;50.970;7.192;2023-02-07T05:35:32;1.70;99.90
35960;DHT22;22043;50.970;7.192;2023-02-07T05:37:58;1.70;99.90
35960;DHT22;22043;50.970;7.192;2023-02-07T05:40:24;1.70;99.90
35960;DHT22;22043;50.970;7.192;2023-02-07T05:42:50;1.60;99.90
35960;DHT22;22043;50.970;7.192;2023-02-07T05:45:16;1.70;99.90
35960;DHT22;22043;50.970;7.192;2023-02-07T05:47:41;1.70;99.90
35960;DHT22;22043;50.970;7.192;2023-02-07T05:50:07;1.70;99.90
35960;DHT22;22043;50.970;7.192;2023-02-07T05:52:33;1.70;99.90
35960;DHT22;22043;50.970;7.192;2023-02-07T05:54:59;1.80;99.90
35960;DHT22;22043;50.970;7.192;2023-02-07T05:57:24;1.70;99.90
35960;DHT22;22043;50.970;7.192;2023-02-07T05:59:50;1.70;99.90
35960;DHT22;22043;50.970;7.192;2023-02-07T06:02:16;1.70;99.90
35960;DHT22;22043;50.970;7.192;2023-02-07T06:04:41;1.70;99.90
35960;DHT22;22043;50.970;7.192;2023-02-07T06:07:07;1.70;99.90
35960;DHT22;22043;50.970;7.192;2023-02-07T06:09:33;1.80;99.90
35960;DHT22;22043;50.970;7.192;2023-02-07T06:11:58;1.70;99.90
35960;DHT22;22043;50.970;7.192;2023-02-07T06:14:24;1.70;99.90
35960;DHT22;22043;50.970;7.192;2023-02-07T06:16:50;1.70;99.90
35960;DHT22;22043;50.970;7.192;2023-02-07T06:19:19;1.70;99.90
35960;DHT22;22043;50.970;7.192;2023-02-07T06:21:45;1.80;99.90
35960;DHT22;22043;50.970;7.192;2023-02-07T06:24:11;1.80;99.90
35960;DHT22;22043;50.970;7.192;2023-02-07T06:26:36;1.80;99.90
35960;DHT22;22043;50.970;7.192;2023-02-07T06:29:02;1.80;99.90
35960;DHT22;22043;50.970;7.192;2023-02-07T06:31:28;1.80;99.90
35960;DHT22;22043;50.970;7.192;2023-02-07T06:33:54;1.70;99.90
35960;DHT22;22043;50.970;7.192;2023-02-07T06:36:19;1.80;99.90
35960;DHT22;22043;50.970;7.192;2023-02-07T06:38:45;1.80;99.90
35960;DHT22;22043;50.970;7.192;2023-02-07T06:41:11;1.80;99.90
35960;DHT22;22043;50.970;7.192;2023-02-07T06:43:38;1.80;99.90
35960;DHT22;22043;50.970;7.192;2023-02-07T06:46:04;1.80;99.90
35960;DHT22;22043;50.970;7.192;2023-02-07T06:48:29;1.80;99.90
35960;DHT22;22043;50.970;7.192;2023-02-07T06:50:55;1.80;99.90
35960;DHT22;22043;50.970;7.192;2023-02-07T06:53:21;1.80;99.90
35960;DHT22;22043;50.970;7.192;2023-02-07T06:55:46;1.80;99.90
35960;DHT22;22043;50.970;7.192;2023-02-07T06:58:12;1.80;99.90
35960;DHT22;22043;50.970;7.192;2023-02-07T07:00:38;1.80;99.90
35960;DHT22;22043;50.970;7.192;2023-02-07T07:03:04;1.80;99.90
35960;DHT22;22043;50.970;7.192;2023-02-07T07:05:30;1.80;99.90
35960;DHT22;22043;50.970;7.192;2023-02-07T07:07:56;1.80;99.90
35960;DHT22;22043;50.970;7.192;2023-02-07T07:10:22;1.80;99.90
35960;DHT22;22043;50.970;7.192;2023-02-07T07:12:48;1.80;99.90
35960;DHT22;22043;50.970;7.192;2023-02-07T07:15:14;1.70;99.90
35960;DHT22;22043;50.970;7.192;2023-02-07T07:17:40;1.70;99.90
35960;DHT22;22043;50.970;7.192;2023-02-07T07:20:06;1.60;99.90
35960;DHT22;22043;50.970;7.192;2023-02-07T07:22:33;1.60;99.90
35960;DHT22;22043;50.970;7.192;2023-02-07T07:24:59;1.70;99.90
35960;DHT22;22043;50.970;7.192;2023-02-07T07:27:25;1.70;99.90
35960;DHT22;22043;50.970;7.192;2023-02-07T07:29:51;1.70;99.90
35960;DHT22;22043;50.970;7.192;2023-02-07T07:32:17;1.70;99.90
35960;DHT22;22043;50.970;7.192;2023-02-07T07:34:42;1.80;99.90
35960;DHT22;22043;50.970;7.192;2023-02-07T07:37:09;1.70;99.90
35960;DHT22;22043;50.970;7.192;2023-02-07T07:39:35;1.80;99.90
35960;DHT22;22043;50.970;7.192;2023-02-07T07:42:01;1.80;99.90
35960;DHT22;22043;50.970;7.192;2023-02-07T07:44:44;1.90;99.90
35960;DHT22;22043;50.970;7.192;2023-02-07T07:47:10;1.90;99.90
35960;DHT22;22043;50.970;7.192;2023-02-07T07:49:37;1.90;99.90
35960;DHT22;22043;50.970;7.192;2023-02-07T07:52:03;2.00;99.90
35960;DHT22;22043;50.970;7.192;2023-02-07T07:54:28;1.90;99.90
35960;DHT22;22043;50.970;7.192;2023-02-07T07:56:54;1.90;99.90
35960;DHT22;22043;50.970;7.192;2023-02-07T07:59:20;1.90;99.90
35960;DHT22;22043;50.970;7.192;2023-02-07T08:01:46;2.00;99.90
35960;DHT22;22043;50.970;7.192;2023-02-07T08:04:11;2.00;99.90
35960;DHT22;22043;50.970;7.192;2023-02-07T08:06:37;1.90;99.90
35960;DHT22;22043;50.970;7.192;2023-02-07T08:09:03;2.00;99.90
35960;DHT22;22043;50.970;7.192;2023-02-07T08:11:29;2.00;99.90
35960;DHT22;22043;50.970;7.192;2023-02-07T08:13:54;2.00;99.90
35960;DHT22;22043;50.970;7.192;2023-02-07T08:16:20;2.10;99.90
35960;DHT22;22043;50.970;7.192;2023-02-07T08:18:46;2.10;99.90
35960;DHT22;22043;50.970;7.192;2023-02-07T08:21:11;2.10;99.90
35960;DHT22;22043;50.970;7.192;2023-02-07T08:23:37;2.20;99.90
35960;DHT22;22043;50.970;7.192;2023-02-07T08:26:03;2.20;99.90
35960;DHT22;22043;50.970;7.192;2023-02-07T08:28:29;2.20;99.90
35960;DHT22;22043;50.970;7.192;2023-02-07T08:31:00;2.30;99.90
35960;DHT22;22043;50.970;7.192;2023-02-07T08:33:26;2.30;99.90
35960;DHT22;22043;50.970;7.192;2023-02-07T08:35:52;2.20;99.90
35960;DHT22;22043;50.970;7.192;2023-02-07T08:38:17;2.30;99.90
35960;DHT22;22043;50.970;7.192;2023-02-07T08:40:43;2.30;99.90
35960;DHT22;22043;50.970;7.192;2023-02-07T08:43:09;2.20;99.90
35960;DHT22;22043;50.970;7.192;2023-02-07T08:45:40;2.30;99.90
35960;DHT22;22043;50.970;7.192;2023-02-07T08:48:07;2.30;99.90
35960;DHT22;22043;50.970;7.192;2023-02-07T08:50:34;2.40;99.90
35960;DHT22;22043;50.970;7.192;2023-02-07T08:53:00;2.40;99.90
35960;DHT22;22043;50.970;7.192;2023-02-07T08:55:25;2.40;99.90
35960;DHT22;22043;50.970;7.192;2023-02-07T08:57:51;2.40;99.90
35960;DHT22;22043;50.970;7.192;2023-02-07T09:00:17;2.50;99.90
35960;DHT22;22043;50.970;7.192;2023-02-07T09:02:43;2.50;99.90
35960;DHT22;22043;50.970;7.192;2023-02-07T09:05:10;2.60;99.90
35960;DHT22;22043;50.970;7.192;2023-02-07T09:07:36;2.60;99.90
35960;DHT22;22043;50.970;7.192;2023-02-07T09:10:02;2.70;99.90
35960;DHT22;22043;50.970;7.192;2023-02-07T09:12:32;2.80;99.90
35960;DHT22;22043;50.970;7.192;2023-02-07T09:14:57;2.80;99.90
35960;DHT22;22043;50.970;7.192;2023-02-07T09:17:23;2.80;99.90
35960;DHT22;22043;50.970;7.192;2023-02-07T09:19:49;2.80;99.90
35960;DHT22;22043;50.970;7.192;2023-02-07T09:22:14;2.80;99.90
35960;DHT22;22043;50.970;7.192;2023-02-07T09:24:41;2.80;99.90
35960;DHT22;22043;50.970;7.192;2023-02-07T09:27:06;2.80;99.90
35960;DHT22;22043;50.970;7.192;2023-02-07T09:29:32;2.80;99.90
35960;DHT22;22043;50.970;7.192;2023-02-07T09:31:58;2.80;99.90
35960;DHT22;22043;50.970;7.192;2023-02-07T09:34:24;2.70;99.90
35960;DHT22;22043;50.970;7.192;2023-02-07T09:36:49;2.80;99.90
35960;DHT22;22043;50.970;7.192;2023-02-07T09:39:17;2.90;99.90
35960;DHT22;22043;50.970;7.192;2023-02-07T09:44:48;2.90;99.90
35960;DHT22;22043;50.970;7.192;2023-02-07T09:47:20;2.80;99.90
35960;DHT22;22043;50.970;7.192;2023-02-07T09:50:00;2.80;99.90
35960;DHT22;22043;50.970;7.192;2023-02-07T09:52:44;2.90;99.90
35960;DHT22;22043;50.970;7.192;2023-02-07T09:57:49;3.00;99.90
35960;DHT22;22043;50.970;7.192;2023-02-07T10:00:28;3.00;99.90
35960;DHT22;22043;50.970;7.192;2023-02-07T10:03:15;3.00;99.90
35960;DHT22;22043;50.970;7.192;2023-02-07T10:06:04;3.10;99.90
35960;DHT22;22043;50.970;7.192;2023-02-07T10:08:32;3.20;99.90
35960;DHT22;22043;50.970;7.192;2023-02-07T10:14:00;3.20;99.90
35960;DHT22;22043;50.970;7.192;2023-02-07T10:24:53;3.40;99.90
35960;DHT22;22043;50.970;7.192;2023-02-07T10:27:39;3.40;99.90
35960;DHT22;22043;50.970;7.192;2023-02-07T10:30:23;3.50;99.90
35960;DHT22;22043;50.970;7.192;2023-02-07T10:32:51;3.50;99.90
35960;DHT22;22043;50.970;7.192;2023-02-07T10:35:23;3.60;99.90
35960;DHT22;22043;50.970;7.192;2023-02-07T10:37:54;3.60;99.90
35960;DHT22;22043;50.970;7.192;2023-02-07T10:40:27;3.50;99.90
35960;DHT22;22043;50.970;7.192;2023-02-07T10:43:02;3.50;99.90
35960;DHT22;22043;50.970;7.192;2023-02-07T10:45:28;3.50;99.90
35960;DHT22;22043;50.970;7.192;2023-02-07T10:47:54;3.50;99.90
35960;DHT22;22043;50.970;7.192;2023-02-07T10:50:22;3.50;99.90
35960;DHT22;22043;50.970;7.192;2023-02-07T10:52:52;3.50;99.90
35960;DHT22;22043;50.970;7.192;2023-02-07T10:55:20;3.60;99.90
35960;DHT22;22043;50.970;7.192;2023-02-07T10:57:59;3.50;99.90
35960;DHT22;22043;50.970;7.192;2023-02-07T11:00:32;3.60;99.90
35960;DHT22;22043;50.970;7.192;2023-02-07T11:03:05;3.60;99.90
35960;DHT22;22043;50.970;7.192;2023-02-07T11:05:35;3.50;99.90
35960;DHT22;22043;50.970;7.192;2023-02-07T11:10:43;3.60;99.90
35960;DHT22;22043;50.970;7.192;2023-02-07T11:13:35;3.60;99.90
35960;DHT22;22043;50.970;7.192;2023-02-07T11:16:06;3.70;99.90
35960;DHT22;22043;50.970;7.192;2023-02-07T11:18:34;3.70;99.90
35960;DHT22;22043;50.970;7.192;2023-02-07T11:23:57;3.70;99.90
35960;DHT22;22043;50.970;7.192;2023-02-07T11:26:23;3.80;99.90
35960;DHT22;22043;50.970;7.192;2023-02-07T11:29:00;3.80;99.90
35960;DHT22;22043;50.970;7.192;2023-02-07T11:31:32;3.80;99.90
35960;DHT22;22043;50.970;7.192;2023-02-07T11:36:45;3.90;99.90
35960;DHT22;22043;50.970;7.192;2023-02-07T11:39:15;3.90;99.90
35960;DHT22;22043;50.970;7.192;2023-02-07T11:42:01;4.00;99.90
35960;DHT22;22043;50.970;7.192;2023-02-07T11:44:28;4.00;99.90
35960;DHT22;22043;50.970;7.192;2023-02-07T11:47:01;3.90;99.90
35960;DHT22;22043;50.970;7.192;2023-02-07T11:49:31;4.00;99.90
35960;DHT22;22043;50.970;7.192;2023-02-07T11:52:00;4.10;99.90
35960;DHT22;22043;50.970;7.192;2023-02-07T11:54:29;4.10;99.90
35960;DHT22;22043;50.970;7.192;2023-02-07T11:57:06;4.10;99.90
35960;DHT22;22043;50.970;7.192;2023-02-07T11:59:34;4.10;99.90
35960;DHT22;22043;50.970;7.192;2023-02-07T12:02:11;4.20;99.90
35960;DHT22;22043;50.970;7.192;2023-02-07T12:04:40;4.10;99.90
35960;DHT22;22043;50.970;7.192;2023-02-07T12:07:22;4.20;99.90
35960;DHT22;22043;50.970;7.192;2023-02-07T12:09:57;4.20;99.90
35960;DHT22;22043;50.970;7.192;2023-02-07T12:12:38;4.20;99.90
35960;DHT22;22043;50.970;7.192;2023-02-07T12:15:11;4.20;99.90
35960;DHT22;22043;50.970;7.192;2023-02-07T12:20:26;4.30;99.90
35960;DHT22;22043;50.970;7.192;2023-02-07T12:23:17;4.30;99.90
35960;DHT22;22043;50.970;7.192;2023-02-07T12:25:51;4.30;99.90
35960;DHT22;22043;50.970;7.192;2023-02-07T12:31:41;4.30;99.90
35960;DHT22;22043;50.970;7.192;2023-02-07T12:34:18;4.40;99.90
35960;DHT22;22043;50.970;7.192;2023-02-07T12:36:50;4.40;99.90
35960;DHT22;22043;50.970;7.192;2023-02-07T12:39:26;4.40;99.90
35960;DHT22;22043;50.970;7.192;2023-02-07T12:42:36;4.40;99.90
35960;DHT22;22043;50.970;7.192;2023-02-07T12:45:04;4.50;99.90
35960;DHT22;22043;50.970;7.192;2023-02-07T12:48:33;4.50;99.90
35960;DHT22;22043;50.970;7.192;2023-02-07T12:56:45;4.50;99.40
35960;DHT22;22043;50.970;7.192;2023-02-07T13:07:24;4.60;99.90
35960;DHT22;22043;50.970;7.192;2023-02-07T13:10:02;4.60;99.90
35960;DHT22;22043;50.970;7.192;2023-02-07T13:12:42;4.60;99.90
35960;DHT22;22043;50.970;7.192;2023-02-07T13:15:37;4.60;99.90
35960;DHT22;22043;50.970;7.192;2023-02-07T13:18:26;4.70;99.90
35960;DHT22;22043;50.970;7.192;2023-02-07T13:23:35;4.60;98.80
35960;DHT22;22043;50.970;7.192;2023-02-07T13:26:14;4.60;98.20
35960;DHT22;22043;50.970;7.192;2023-02-07T13:28:45;4.70;98.50
35960;DHT22;22043;50.970;7.192;2023-02-07T13:31:18;4.70;98.60
35960;DHT22;22043;50.970;7.192;2023-02-07T13:33:47;4.70;97.50
35960;DHT22;22043;50.970;7.192;2023-02-07T13:36:41;4.80;97.90
35960;DHT22;22043;50.970;7.192;2023-02-07T13:39:25;4.80;96.30
35960;DHT22;22043;50.970;7.192;2023-02-07T13:47:24;4.90;98.30
35960;DHT22;22043;50.970;7.192;2023-02-07T13:50:14;4.90;97.40
35960;DHT22;22043;50.970;7.192;2023-02-07T13:53:05;4.90;96.90
35960;DHT22;22043;50.970;7.192;2023-02-07T13:55:35;5.00;96.40
35960;DHT22;22043;50.970;7.192;2023-02-07T13:58:02;4.90;95.80
35960;DHT22;22043;50.970;7.192;2023-02-07T14:03:28;5.00;95.40
35960;DHT22;22043;50.970;7.192;2023-02-07T14:06:14;5.00;95.90
35960;DHT22;22043;50.970;7.192;2023-02-07T14:08:41;5.00;96.40
35960;DHT22;22043;50.970;7.192;2023-02-07T14:11:29;5.00;95.80
35960;DHT22;22043;50.970;7.192;2023-02-07T14:14:23;5.00;97.20
35960;DHT22;22043;50.970;7.192;2023-02-07T14:17:08;5.00;97.30
35960;DHT22;22043;50.970;7.192;2023-02-07T14:27:36;5.10;93.30
35960;DHT22;22043;50.970;7.192;2023-02-07T14:37:51;5.10;93.40
35960;DHT22;22043;50.970;7.192;2023-02-07T14:41:03;5.10;93.70
35960;DHT22;22043;50.970;7.192;2023-02-07T14:45:39;5.20;93.30
35960;DHT22;22043;50.970;7.192;2023-02-07T14:48:45;5.10;93.00
35960;DHT22;22043;50.970;7.192;2023-02-07T14:53:41;5.20;93.90
35960;DHT22;22043;50.970;7.192;2023-02-07T14:56:38;5.20;94.30
35960;DHT22;22043;50.970;7.192;2023-02-07T14:59:08;5.20;94.10
35960;DHT22;22043;50.970;7.192;2023-02-07T15:01:36;5.20;94.50
35960;DHT22;22043;50.970;7.192;2023-02-07T15:04:04;5.20;94.10
35960;DHT22;22043;50.970;7.192;2023-02-07T15:06:43;5.20;93.80
35960;DHT22;22043;50.970;7.192;2023-02-07T15:09:23;5.20;94.20
35960;DHT22;22043;50.970;7.192;2023-02-07T15:11:49;5.20;94.90
35960;DHT22;22043;50.970;7.192;2023-02-07T15:14:30;5.20;94.10
35960;DHT22;22043;50.970;7.192;2023-02-07T15:16:57;5.10;95.20
35960;DHT22;22043;50.970;7.192;2023-02-07T15:19:34;5.20;94.70
35960;DHT22;22043;50.970;7.192;2023-02-07T15:22:02;5.20;94.10
35960;DHT22;22043;50.970;7.192;2023-02-07T15:24:31;5.20;94.80
35960;DHT22;22043;50.970;7.192;2023-02-07T15:27:00;5.20;94.80
35960;DHT22;22043;50.970;7.192;2023-02-07T15:29:29;5.20;94.00
35960;DHT22;22043;50.970;7.192;2023-02-07T15:31:55;5.20;93.60
35960;DHT22;22043;50.970;7.192;2023-02-07T15:34:26;5.20;94.30
35960;DHT22;22043;50.970;7.192;2023-02-07T15:36:58;5.20;93.20
35960;DHT22;22043;50.970;7.192;2023-02-07T15:39:26;5.10;93.00
35960;DHT22;22043;50.970;7.192;2023-02-07T15:41:54;5.10;93.20
35960;DHT22;22043;50.970;7.192;2023-02-07T15:44:26;5.20;93.70
35960;DHT22;22043;50.970;7.192;2023-02-07T15:46:55;5.10;94.00
35960;DHT22;22043;50.970;7.192;2023-02-07T15:49:37;5.10;93.80
35960;DHT22;22043;50.970;7.192;2023-02-07T15:52:21;5.10;94.00
35960;DHT22;22043;50.970;7.192;2023-02-07T15:54:50;5.10;93.40
35960;DHT22;22043;50.970;7.192;2023-02-07T15:57:29;5.10;93.80
35960;DHT22;22043;50.970;7.192;2023-02-07T16:00:00;5.10;93.70
35960;DHT22;22043;50.970;7.192;2023-02-07T16:02:32;5.10;95.10
35960;DHT22;22043;50.970;7.192;2023-02-07T16:05:07;5.00;94.60
35960;DHT22;22043;50.970;7.192;2023-02-07T16:07:35;5.10;96.80
35960;DHT22;22043;50.970;7.192;2023-02-07T16:13:02;5.00;96.20
35960;DHT22;22043;50.970;7.192;2023-02-07T16:15:36;4.90;94.60
35960;DHT22;22043;50.970;7.192;2023-02-07T16:18:03;4.90;94.50
35960;DHT22;22043;50.970;7.192;2023-02-07T16:20:31;4.90;94.20
35960;DHT22;22043;50.970;7.192;2023-02-07T16:23:01;4.90;95.50
35960;DHT22;22043;50.970;7.192;2023-02-07T16:25:30;4.90;95.60
35960;DHT22;22043;50.970;7.192;2023-02-07T16:27:57;4.90;95.30
35960;DHT22;22043;50.970;7.192;2023-02-07T16:30:31;4.80;95.20
35960;DHT22;22043;50.970;7.192;2023-02-07T16:33:02;4.80;94.40
35960;DHT22;22043;50.970;7.192;2023-02-07T16:35:28;4.80;94.40
35960;DHT22;22043;50.970;7.192;2023-02-07T16:37:53;4.80;94.70
35960;DHT22;22043;50.970;7.192;2023-02-07T16:40:20;4.70;94.00
35960;DHT22;22043;50.970;7.192;2023-02-07T16:42:47;4.80;94.60
35960;DHT22;22043;50.970;7.192;2023-02-07T16:45:24;4.70;95.50
35960;DHT22;22043;50.970;7.192;2023-02-07T16:47:50;4.70;97.10
35960;DHT22;22043;50.970;7.192;2023-02-07T16:50:21;4.60;99.30
35960;DHT22;22043;50.970;7.192;2023-02-07T16:52:49;4.60;97.40
35960;DHT22;22043;50.970;7.192;2023-02-07T16:55:16;4.50;97.40
35960;DHT22;22043;50.970;7.192;2023-02-07T16:57:44;4.50;97.50
35960;DHT22;22043;50.970;7.192;2023-02-07T17:00:15;4.50;97.40
35960;DHT22;22043;50.970;7.192;2023-02-07T17:02:42;4.40;99.00
35960;DHT22;22043;50.970;7.192;2023-02-07T17:05:08;4.40;97.80
35960;DHT22;22043;50.970;7.192;2023-02-07T17:07:34;4.40;96.90
35960;DHT22;22043;50.970;7.192;2023-02-07T17:10:00;4.40;96.60
35960;DHT22;22043;50.970;7.192;2023-02-07T17:12:25;4.40;98.40
35960;DHT22;22043;50.970;7.192;2023-02-07T17:14:51;4.40;99.30
35960;DHT22;22043;50.970;7.192;2023-02-07T17:17:17;4.30;99.10
35960;DHT22;22043;50.970;7.192;2023-02-07T17:19:43;4.30;99.30
35960;DHT22;22043;50.970;7.192;2023-02-07T17:22:12;4.10;99.90
35960;DHT22;22043;50.970;7.192;2023-02-07T17:24:38;4.10;99.90
35960;DHT22;22043;50.970;7.192;2023-02-07T17:27:04;4.00;99.90
35960;DHT22;22043;50.970;7.192;2023-02-07T17:29:29;3.90;99.90
35960;DHT22;22043;50.970;7.192;2023-02-07T17:31:55;3.90;99.90
35960;DHT22;22043;50.970;7.192;2023-02-07T17:34:21;3.80;99.90
35960;DHT22;22043;50.970;7.192;2023-02-07T17:36:48;3.80;99.90
35960;DHT22;22043;50.970;7.192;2023-02-07T17:39:15;3.70;99.90
35960;DHT22;22043;50.970;7.192;2023-02-07T17:41:41;3.70;99.90
35960;DHT22;22043;50.970;7.192;2023-02-07T17:44:07;3.60;99.90
35960;DHT22;22043;50.970;7.192;2023-02-07T17:46:33;3.60;99.90
35960;DHT22;22043;50.970;7.192;2023-02-07T17:48:59;3.50;99.90
35960;DHT22;22043;50.970;7.192;2023-02-07T17:51:26;3.50;99.90
35960;DHT22;22043;50.970;7.192;2023-02-07T17:53:54;3.50;99.90
35960;DHT22;22043;50.970;7.192;2023-02-07T17:56:25;3.40;99.90
35960;DHT22;22043;50.970;7.192;2023-02-07T17:58:52;3.40;99.90
35960;DHT22;22043;50.970;7.192;2023-02-07T18:01:18;3.50;99.90
35960;DHT22;22043;50.970;7.192;2023-02-07T18:03:47;3.50;99.90
35960;DHT22;22043;50.970;7.192;2023-02-07T18:06:14;3.50;99.90
35960;DHT22;22043;50.970;7.192;2023-02-07T18:08:41;3.50;99.90
35960;DHT22;22043;50.970;7.192;2023-02-07T18:11:07;3.50;99.90
35960;DHT22;22043;50.970;7.192;2023-02-07T18:13:33;3.40;99.90
35960;DHT22;22043;50.970;7.192;2023-02-07T18:15:58;3.40;99.90
35960;DHT22;22043;50.970;7.192;2023-02-07T18:18:24;3.40;99.90
35960;DHT22;22043;50.970;7.192;2023-02-07T18:20:50;3.40;99.90
35960;DHT22;22043;50.970;7.192;2023-02-07T18:23:17;3.50;99.90
35960;DHT22;22043;50.970;7.192;2023-02-07T18:25:48;3.50;99.90
35960;DHT22;22043;50.970;7.192;2023-02-07T18:28:14;3.50;99.90